< < Back
Terminal Aerodrome Forecast


Current Version              Previous Versions:   1  2  3  4  5  6  7  8  9  

Terminal Aerodrome Forecast

725
FTUS44 KBMX 260500
TAFTCL
TAF
KTCL 260522Z 2606/2706 00000KT 6SM BR SCT250
     FM261600 24006KT P6SM FEW050=



Latest METAR

401
SAUS70 KWBC 261500 RRE
MTRTCL
METAR KTCL 261453Z 19003KT 10SM CLR 28/19 A3008 RMK AO2 SLP182 T02780194
50009


USA.gov is the U.S. government's official web portal to all federal, state and local government web resources and services.